createdAt,value
2022-08-21T00:02:16.819Z,35.57
2022-08-21T00:04:57.001Z,35.35
2022-08-21T00:07:27.907Z,35.36
2022-08-21T00:09:57.573Z,35.82
2022-08-21T00:12:28.365Z,35.27
2022-08-21T00:14:58.245Z,35.37
2022-08-21T00:17:28.362Z,35.76
2022-08-21T00:19:59.022Z,35.52
2022-08-21T00:22:28.454Z,35.58
2022-08-21T00:24:57.973Z,35.74
2022-08-21T00:27:27.553Z,35.88
2022-08-21T00:29:57.627Z,36.26
2022-08-21T00:32:28.788Z,36.08
2022-08-21T00:35:00.003Z,36.06
2022-08-21T00:37:30.517Z,36.13
2022-08-21T00:40:01.155Z,36.20
2022-08-21T00:42:32.842Z,36.21
2022-08-21T00:45:03.457Z,36.28
2022-08-21T00:47:33.218Z,36.20
2022-08-21T00:50:04.626Z,36.41
2022-08-21T00:52:35.103Z,35.67
2022-08-21T00:55:06.008Z,36.00
2022-08-21T00:57:43.150Z,36.51
2022-08-21T01:00:18.497Z,36.57
2022-08-21T01:02:48.308Z,36.73
2022-08-21T01:05:19.431Z,36.54
2022-08-21T01:07:48.991Z,36.50
2022-08-21T01:10:24.044Z,36.92
2022-08-21T01:12:56.258Z,36.72
2022-08-21T01:15:29.825Z,36.87
2022-08-21T01:17:59.758Z,36.77
2022-08-21T01:20:32.322Z,37.08
2022-08-21T01:23:06.569Z,36.87
2022-08-21T01:25:36.777Z,36.91
2022-08-21T01:28:13.581Z,37.30
2022-08-21T01:30:44.801Z,37.45
2022-08-21T01:33:14.209Z,37.16
2022-08-21T01:35:43.596Z,37.24
2022-08-21T01:38:16.325Z,37.22
2022-08-21T01:40:45.893Z,37.55
2022-08-21T01:43:15.303Z,37.70
2022-08-21T01:45:44.772Z,37.46
2022-08-21T01:48:14.166Z,37.38
2022-08-21T01:50:43.775Z,37.69
2022-08-21T01:53:16.502Z,37.64
2022-08-21T01:55:46.662Z,37.41
2022-08-21T01:58:17.603Z,37.62
2022-08-21T02:00:46.728Z,37.65
2022-08-21T02:03:34.974Z,37.75
2022-08-21T02:06:05.730Z,37.55
2022-08-21T02:08:37.172Z,37.87
2022-08-21T02:11:06.588Z,37.54
2022-08-21T02:13:36.049Z,37.80
2022-08-21T02:16:06.603Z,37.87
2022-08-21T02:18:36.123Z,37.76
2022-08-21T02:21:07.074Z,38.07
2022-08-21T02:23:37.992Z,37.87
2022-08-21T02:26:10.299Z,37.99
2022-08-21T02:28:40.555Z,38.04
2022-08-21T02:31:09.818Z,38.21
2022-08-21T02:33:40.604Z,38.10
2022-08-21T02:36:11.386Z,38.28
2022-08-21T02:38:44.216Z,38.23
2022-08-21T02:41:15.639Z,38.09
2022-08-21T02:43:45.324Z,38.15
2022-08-21T02:46:17.409Z,38.81
2022-08-21T02:48:47.413Z,38.28
2022-08-21T02:51:20.094Z,38.20
2022-08-21T02:53:51.808Z,38.21
2022-08-21T02:56:23.588Z,37.28
2022-08-21T02:58:54.079Z,37.24
2022-08-21T03:01:26.119Z,37.79
2022-08-21T03:03:56.682Z,38.18
2022-08-21T03:06:27.541Z,38.07
2022-08-21T03:08:58.814Z,38.24
2022-08-21T03:11:28.143Z,38.34
2022-08-21T03:13:57.711Z,37.93
2022-08-21T03:16:30.979Z,38.14
2022-08-21T03:19:04.391Z,38.02
2022-08-21T03:21:34.648Z,38.15
2022-08-21T03:24:07.962Z,37.76
2022-08-21T03:26:37.379Z,37.66
2022-08-21T03:29:10.288Z,37.67
2022-08-21T03:31:41.120Z,38.05
2022-08-21T03:34:10.584Z,37.46
2022-08-21T03:36:39.843Z,37.97
2022-08-21T03:39:10.470Z,37.63
2022-08-21T03:41:40.227Z,37.67
2022-08-21T03:44:10.411Z,37.54
2022-08-21T03:46:41.198Z,37.60
2022-08-21T03:49:11.225Z,37.62
2022-08-21T03:51:43.816Z,37.17
2022-08-21T03:54:15.166Z,37.15
2022-08-21T03:56:44.651Z,37.08
2022-08-21T03:59:14.563Z,36.95
2022-08-21T04:01:54.794Z,36.84
2022-08-21T04:04:24.552Z,36.78
2022-08-21T04:06:54.955Z,36.84
2022-08-21T04:09:25.533Z,36.83
2022-08-21T04:11:55.606Z,36.26
2022-08-21T04:14:25.261Z,36.54
2022-08-21T04:16:54.898Z,36.21
2022-08-21T04:19:26.152Z,36.00
2022-08-21T04:21:56.194Z,36.01
2022-08-21T04:24:27.536Z,35.79
2022-08-21T04:27:00.778Z,35.97
2022-08-21T04:29:30.241Z,35.73
2022-08-21T04:31:59.569Z,35.87
2022-08-21T04:34:29.239Z,35.96
2022-08-21T04:36:59.064Z,36.07
2022-08-21T04:39:29.958Z,35.54
2022-08-21T04:41:58.912Z,35.30
2022-08-21T04:44:28.268Z,35.79
2022-08-21T04:46:57.808Z,35.06
2022-08-21T04:49:27.850Z,35.18
2022-08-21T04:51:57.907Z,35.51
2022-08-21T04:54:28.919Z,35.11
2022-08-21T04:57:01.641Z,34.80
2022-08-21T04:59:34.316Z,34.51
2022-08-21T05:02:04.889Z,34.62
2022-08-21T05:04:37.967Z,34.81
2022-08-21T05:07:14.691Z,34.57
2022-08-21T05:09:45.948Z,34.24
2022-08-21T05:12:16.065Z,34.37
2022-08-21T05:14:45.661Z,33.91
2022-08-21T05:17:15.684Z,34.16
2022-08-21T05:19:45.272Z,34.29
2022-08-21T05:22:22.193Z,33.92
2022-08-21T05:24:53.874Z,34.04
2022-08-21T05:27:31.636Z,33.95
2022-08-21T05:30:04.087Z,33.89
2022-08-21T05:32:34.126Z,34.40
2022-08-21T05:35:05.118Z,34.66
2022-08-21T05:37:35.366Z,34.14
2022-08-21T05:40:21.645Z,33.66
2022-08-21T05:42:56.841Z,33.84
2022-08-21T05:45:42.641Z,33.65
2022-08-21T05:48:16.894Z,33.42
2022-08-21T05:50:52.399Z,33.12
2022-08-21T05:53:27.258Z,33.32
2022-08-21T05:55:58.488Z,32.60
2022-08-21T05:58:29.219Z,32.43
2022-08-21T06:01:00.136Z,32.47
2022-08-21T06:03:32.455Z,32.38
2022-08-21T06:06:02.932Z,32.28
2022-08-21T06:08:35.906Z,31.63
2022-08-21T06:11:08.494Z,31.20
2022-08-21T06:13:40.131Z,31.19
2022-08-21T06:16:10.611Z,29.88
2022-08-21T06:18:41.851Z,30.30
2022-08-21T06:21:12.595Z,30.63
2022-08-21T06:23:46.517Z,30.69
2022-08-21T06:26:17.701Z,29.90
2022-08-21T06:28:47.994Z,28.38
2022-08-21T06:31:20.704Z,28.26
2022-08-21T06:33:51.472Z,28.47
2022-08-21T06:36:21.936Z,27.88
2022-08-21T06:38:51.995Z,26.92
2022-08-21T06:41:26.548Z,25.87
2022-08-21T06:43:58.754Z,25.36
2022-08-21T06:46:30.373Z,24.55
2022-08-21T06:49:04.381Z,23.97
2022-08-21T06:51:35.532Z,23.39
2022-08-21T06:54:10.873Z,22.80
2022-08-21T06:56:41.701Z,22.79
2022-08-21T06:59:17.153Z,22.43
2022-08-21T07:01:47.551Z,21.33
2022-08-21T07:04:17.224Z,21.61
2022-08-21T07:06:46.948Z,21.58
2022-08-21T07:09:16.568Z,21.54
2022-08-21T07:11:55.944Z,20.44
2022-08-21T07:14:25.854Z,20.56
2022-08-21T07:16:56.815Z,20.99
2022-08-21T07:19:26.324Z,20.43
2022-08-21T07:21:59.459Z,20.58
2022-08-21T07:24:30.451Z,21.00
2022-08-21T07:27:01.005Z,20.33
2022-08-21T07:29:30.324Z,19.48
2022-08-21T07:32:02.391Z,20.06
2022-08-21T07:34:34.500Z,20.71
2022-08-21T07:37:06.333Z,20.67
2022-08-21T07:39:39.645Z,19.56
2022-08-21T07:42:11.214Z,19.52
2022-08-21T07:44:41.180Z,20.18
2022-08-21T07:47:11.713Z,20.76
2022-08-21T07:49:41.570Z,19.24
2022-08-21T07:52:12.344Z,19.47
2022-08-21T07:54:41.900Z,19.08
2022-08-21T07:57:12.501Z,19.02
2022-08-21T07:59:41.918Z,19.18
2022-08-21T08:02:13.004Z,17.99
2022-08-21T08:04:50.717Z,17.77
2022-08-21T08:07:21.780Z,17.46
2022-08-21T08:09:51.929Z,17.28
2022-08-21T08:12:30.333Z,17.28
2022-08-21T08:15:00.769Z,17.56
2022-08-21T08:17:36.360Z,18.27
2022-08-21T08:20:08.747Z,18.42
2022-08-21T08:22:40.240Z,17.80
2022-08-21T08:25:13.581Z,17.51
2022-08-21T08:27:44.925Z,17.62
2022-08-21T08:30:19.744Z,17.19
2022-08-21T08:32:51.893Z,18.14
2022-08-21T08:35:24.843Z,17.83
2022-08-21T08:37:56.146Z,17.28
2022-08-21T08:40:36.858Z,16.42
2022-08-21T08:43:09.957Z,16.62
2022-08-21T08:45:49.639Z,15.75
2022-08-21T08:48:47.180Z,16.75
2022-08-21T08:51:28.395Z,18.16
2022-08-21T08:54:08.286Z,18.07
2022-08-21T08:56:39.907Z,18.21
2022-08-21T08:59:21.801Z,18.44
2022-08-21T09:01:54.550Z,18.36
2022-08-21T09:04:30.435Z,19.14
2022-08-21T09:07:12.631Z,19.03
2022-08-21T09:09:58.257Z,19.58
2022-08-21T09:12:40.544Z,18.68
2022-08-21T09:15:23.298Z,18.48
2022-08-21T09:18:11.526Z,18.82
2022-08-21T09:20:59.536Z,18.83
2022-08-21T09:23:39.409Z,18.70
2022-08-21T09:26:15.558Z,17.09
2022-08-21T09:28:45.596Z,16.15
2022-08-21T09:31:26.262Z,16.00
2022-08-21T09:34:01.512Z,16.45
2022-08-21T09:36:39.611Z,16.94
2022-08-21T09:39:11.891Z,17.59
2022-08-21T09:41:42.317Z,17.98
2022-08-21T09:44:13.063Z,18.25
2022-08-21T09:46:52.878Z,18.46
2022-08-21T09:49:41.593Z,19.01
2022-08-21T09:52:20.835Z,19.51
2022-08-21T09:54:54.322Z,20.50
2022-08-21T09:57:50.565Z,20.26
2022-08-21T10:00:30.891Z,19.73
2022-08-21T10:03:26.210Z,19.84
2022-08-21T10:06:09.158Z,20.69
2022-08-21T10:08:41.545Z,20.42
2022-08-21T10:11:16.917Z,20.66
2022-08-21T10:13:59.317Z,20.39
2022-08-21T10:16:41.186Z,20.08
2022-08-21T10:19:27.785Z,20.06
2022-08-21T10:22:10.809Z,19.73
2022-08-21T10:24:50.948Z,19.23
2022-08-21T10:27:28.726Z,19.26
2022-08-21T10:30:05.851Z,19.66
2022-08-21T10:33:00.099Z,19.56
2022-08-21T10:35:37.688Z,19.53
2022-08-21T10:38:55.220Z,19.70
2022-08-21T10:41:49.972Z,19.74
2022-08-21T10:44:32.922Z,20.03
2022-08-21T10:47:13.432Z,20.35
2022-08-21T10:49:51.461Z,20.93
2022-08-21T10:52:54.700Z,20.43
2022-08-21T10:55:27.928Z,20.84
2022-08-21T10:58:13.830Z,20.72
2022-08-21T11:00:56.766Z,20.09
2022-08-21T11:03:34.399Z,19.92
2022-08-21T11:06:13.553Z,20.02
2022-08-21T11:08:48.562Z,19.62
2022-08-21T11:11:23.801Z,19.65
2022-08-21T11:14:01.080Z,20.00
2022-08-21T11:16:40.136Z,19.61
2022-08-21T11:19:16.544Z,19.06
2022-08-21T11:21:52.387Z,19.74
2022-08-21T11:24:33.372Z,19.70
2022-08-21T11:27:12.422Z,19.41
2022-08-21T11:29:45.319Z,19.63
2022-08-21T11:32:42.496Z,19.59
2022-08-21T11:35:22.730Z,19.49
2022-08-21T11:38:07.779Z,19.65
2022-08-21T11:40:55.326Z,19.67
2022-08-21T11:43:34.980Z,20.42
2022-08-21T11:46:19.290Z,20.35
2022-08-21T11:49:01.763Z,21.13
2022-08-21T11:51:36.824Z,20.53
2022-08-21T11:54:19.176Z,21.29
2022-08-21T11:57:00.670Z,20.87
2022-08-21T11:59:40.867Z,20.87
2022-08-21T12:02:16.187Z,20.63
2022-08-21T12:04:52.100Z,21.42
2022-08-21T12:07:37.509Z,20.63
2022-08-21T12:10:11.405Z,20.82
2022-08-21T12:12:45.421Z,20.79
2022-08-21T12:15:31.422Z,20.80
2022-08-21T12:18:04.415Z,20.77
2022-08-21T12:20:50.845Z,20.59
2022-08-21T12:23:48.795Z,20.24
2022-08-21T12:26:28.792Z,20.23
2022-08-21T12:29:24.189Z,19.64
2022-08-21T12:32:00.994Z,19.42
2022-08-21T12:34:40.680Z,19.31
2022-08-21T12:37:23.621Z,18.45
2022-08-21T12:39:59.010Z,18.92
2022-08-21T12:42:44.016Z,18.31
2022-08-21T12:45:22.269Z,18.00
2022-08-21T12:47:56.182Z,18.00
2022-08-21T12:50:37.285Z,18.28
2022-08-21T12:53:18.605Z,18.39
2022-08-21T12:55:52.585Z,18.43
2022-08-21T12:58:24.052Z,18.19
2022-08-21T13:00:58.316Z,18.42
2022-08-21T13:03:30.091Z,18.42
2022-08-21T13:06:02.324Z,18.71
2022-08-21T13:08:40.137Z,18.46
2022-08-21T13:11:14.939Z,19.00
2022-08-21T13:13:51.082Z,18.63
2022-08-21T13:16:32.006Z,18.81
2022-08-21T13:19:06.995Z,18.60
2022-08-21T13:21:45.551Z,18.51
2022-08-21T13:24:41.952Z,18.46
2022-08-21T13:27:26.895Z,18.64
2022-08-21T13:30:12.509Z,18.75
2022-08-21T13:32:46.507Z,18.82
2022-08-21T13:35:20.441Z,18.67
2022-08-21T13:37:52.847Z,18.64
2022-08-21T13:40:28.533Z,18.64
2022-08-21T13:43:00.093Z,18.96
2022-08-21T13:45:35.893Z,19.52
2022-08-21T13:48:07.964Z,18.77
2022-08-21T13:50:44.755Z,18.80
2022-08-21T13:53:26.254Z,19.17
2022-08-21T13:56:00.356Z,19.09
2022-08-21T13:58:33.789Z,19.07
2022-08-21T14:01:07.692Z,18.86
2022-08-21T14:03:44.986Z,19.23
2022-08-21T14:06:18.041Z,18.82
2022-08-21T14:08:54.241Z,18.57
2022-08-21T14:11:28.860Z,19.41
2022-08-21T14:14:05.169Z,19.21
2022-08-21T14:16:47.965Z,19.36
2022-08-21T14:19:39.981Z,19.44
2022-08-21T14:22:39.970Z,19.78
2022-08-21T14:25:14.344Z,19.77
2022-08-21T14:27:47.541Z,20.01
2022-08-21T14:30:23.407Z,20.10
2022-08-21T14:33:04.572Z,20.34
2022-08-21T14:35:36.628Z,20.29
2022-08-21T14:38:17.167Z,20.02
2022-08-21T14:40:51.780Z,20.03
2022-08-21T14:43:25.366Z,20.12
2022-08-21T14:45:58.989Z,20.15
2022-08-21T14:48:30.772Z,20.09
2022-08-21T14:51:02.864Z,19.80
2022-08-21T14:53:33.058Z,21.06
2022-08-21T14:56:08.437Z,20.71
2022-08-21T14:58:41.728Z,20.31
2022-08-21T15:01:14.231Z,20.34
2022-08-21T15:03:47.525Z,19.98
2022-08-21T15:06:22.255Z,20.02
2022-08-21T15:08:53.126Z,19.78
2022-08-21T15:11:41.832Z,19.94
2022-08-21T15:14:21.298Z,19.52
2022-08-21T15:16:55.000Z,19.83
2022-08-21T15:19:28.605Z,20.06
2022-08-21T15:22:00.793Z,20.01
2022-08-21T15:24:37.945Z,20.05
2022-08-21T15:27:11.739Z,19.93
2022-08-21T15:29:47.295Z,20.37
2022-08-21T15:32:26.896Z,20.48
2022-08-21T15:34:59.211Z,20.83
2022-08-21T15:37:33.874Z,20.82
2022-08-21T15:40:08.424Z,20.89
2022-08-21T15:42:40.526Z,20.96
2022-08-21T15:45:14.248Z,20.96
2022-08-21T15:47:53.962Z,20.91
2022-08-21T15:50:28.059Z,21.22
2022-08-21T15:53:02.079Z,21.17
2022-08-21T15:55:32.268Z,21.31
2022-08-21T15:58:05.892Z,20.97
2022-08-21T16:00:40.859Z,21.27
2022-08-21T16:03:13.670Z,21.11
2022-08-21T16:05:44.786Z,21.89
2022-08-21T16:08:17.728Z,21.74
2022-08-21T16:10:49.069Z,21.86
2022-08-21T16:13:24.245Z,22.26
2022-08-21T16:15:55.006Z,22.36
2022-08-21T16:18:30.376Z,22.28
2022-08-21T16:21:15.354Z,22.33
2022-08-21T16:23:50.304Z,22.37
2022-08-21T16:26:21.159Z,22.76
2022-08-21T16:28:59.413Z,22.75
2022-08-21T16:31:36.926Z,22.68
2022-08-21T16:34:20.253Z,23.21
2022-08-21T16:36:52.019Z,22.95
2022-08-21T16:39:24.230Z,23.11
2022-08-21T16:41:57.005Z,23.01
2022-08-21T16:44:30.138Z,23.33
2022-08-21T16:47:05.745Z,23.32
2022-08-21T16:49:36.578Z,23.36
2022-08-21T16:52:09.387Z,23.57
2022-08-21T16:54:43.847Z,23.63
2022-08-21T16:57:18.013Z,23.86
2022-08-21T16:59:50.594Z,23.86
2022-08-21T17:02:33.120Z,23.91
2022-08-21T17:05:11.390Z,24.05
2022-08-21T17:07:47.833Z,24.16
2022-08-21T17:10:20.594Z,24.37
2022-08-21T17:12:58.435Z,24.23
2022-08-21T17:15:33.253Z,24.41
2022-08-21T17:18:12.167Z,24.50
2022-08-21T17:20:55.098Z,24.27
2022-08-21T17:23:28.368Z,24.55
2022-08-21T17:26:01.699Z,24.68
2022-08-21T17:28:36.164Z,24.97
2022-08-21T17:31:17.328Z,24.82
2022-08-21T17:33:56.457Z,24.68
2022-08-21T17:36:32.004Z,24.82
2022-08-21T17:39:06.371Z,24.63
2022-08-21T17:41:38.703Z,25.23
2022-08-21T17:44:13.281Z,24.97
2022-08-21T17:46:46.105Z,24.95
2022-08-21T17:49:17.306Z,24.98
2022-08-21T17:51:49.978Z,25.00
2022-08-21T17:54:21.553Z,25.06
2022-08-21T17:56:57.177Z,25.02
2022-08-21T17:59:30.292Z,24.66
2022-08-21T18:02:01.828Z,24.99
2022-08-21T18:04:36.348Z,25.15
2022-08-21T18:07:08.271Z,24.82
2022-08-21T18:09:41.307Z,24.78
2022-08-21T18:12:15.386Z,25.37
2022-08-21T18:14:47.152Z,25.02
2022-08-21T18:17:22.074Z,25.07
2022-08-21T18:19:52.705Z,25.42
2022-08-21T18:22:27.970Z,25.35
2022-08-21T18:24:58.307Z,25.56
2022-08-21T18:27:33.235Z,25.64
2022-08-21T18:30:10.550Z,26.02
2022-08-21T18:32:40.744Z,25.98
2022-08-21T18:35:14.672Z,25.76
2022-08-21T18:37:45.519Z,26.16
2022-08-21T18:40:17.731Z,26.22
2022-08-21T18:42:55.435Z,26.50
2022-08-21T18:45:27.707Z,26.36
2022-08-21T18:47:59.806Z,26.66
2022-08-21T18:50:34.481Z,26.96
2022-08-21T18:53:07.954Z,26.39
2022-08-21T18:58:58.471Z,26.74
2022-08-21T19:01:29.250Z,26.60
2022-08-21T19:04:01.003Z,26.60
2022-08-21T19:06:34.001Z,26.65
2022-08-21T19:09:06.523Z,26.61
2022-08-21T19:11:43.093Z,26.68
2022-08-21T19:14:38.541Z,26.79
2022-08-21T19:17:10.275Z,27.24
2022-08-21T19:19:40.444Z,27.24
2022-08-21T19:22:14.775Z,27.08
2022-08-21T19:24:50.821Z,27.38
2022-08-21T19:27:21.011Z,27.00
2022-08-21T19:29:55.779Z,27.00
2022-08-21T19:32:26.850Z,26.83
2022-08-21T19:34:58.089Z,26.45
2022-08-21T19:37:30.154Z,26.71
2022-08-21T19:40:01.142Z,26.35
2022-08-21T19:42:34.894Z,26.98
2022-08-21T19:45:09.622Z,26.72
2022-08-21T19:47:44.030Z,26.71
2022-08-21T19:50:21.371Z,26.79
2022-08-21T19:52:52.850Z,26.63
2022-08-21T19:55:25.800Z,26.92
2022-08-21T19:58:01.749Z,26.65
2022-08-21T20:00:32.769Z,26.97
2022-08-21T20:03:04.893Z,26.63
2022-08-21T20:05:44.357Z,26.59
2022-08-21T20:08:20.189Z,26.61
2022-08-21T20:10:53.601Z,26.95
2022-08-21T20:13:32.993Z,26.63
2022-08-21T20:16:07.983Z,26.73
2022-08-21T20:21:44.191Z,26.98
2022-08-21T20:24:24.101Z,26.81
2022-08-21T20:27:00.722Z,27.22
2022-08-21T20:29:39.135Z,27.10
2022-08-21T20:32:12.693Z,26.99
2022-08-21T20:34:51.988Z,26.91
2022-08-21T20:37:36.986Z,27.36
2022-08-21T20:40:15.614Z,27.05
2022-08-21T20:42:54.481Z,27.58
2022-08-21T20:45:34.606Z,27.27
2022-08-21T20:48:12.339Z,27.69
2022-08-21T20:50:48.740Z,27.79
2022-08-21T20:53:25.825Z,27.86
2022-08-21T20:56:11.508Z,27.90
2022-08-21T20:58:58.114Z,27.88
2022-08-21T21:01:35.543Z,28.01
2022-08-21T21:04:19.652Z,28.09
2022-08-21T21:06:53.377Z,28.17
2022-08-21T21:09:40.302Z,28.32
2022-08-21T21:12:18.548Z,28.69
2022-08-21T21:15:02.163Z,28.35
2022-08-21T21:17:44.159Z,28.46
2022-08-21T21:20:22.059Z,28.51
2022-08-21T21:23:05.329Z,28.48
2022-08-21T21:25:53.876Z,28.68
2022-08-21T21:28:30.842Z,28.98
2022-08-21T21:31:00.488Z,29.49
2022-08-21T21:33:34.355Z,29.94
2022-08-21T21:36:14.748Z,29.94
2022-08-21T21:39:02.135Z,30.29
2022-08-21T21:41:44.970Z,30.19
2022-08-21T21:44:28.963Z,30.60
2022-08-21T21:47:08.333Z,30.42
2022-08-21T21:49:52.499Z,31.12
2022-08-21T22:06:12.771Z,30.60
2022-08-21T22:08:51.513Z,30.72
2022-08-21T22:14:22.808Z,30.66
2022-08-21T22:16:52.711Z,30.32
2022-08-21T22:19:26.135Z,30.61
2022-08-21T22:22:09.360Z,30.46
2022-08-21T22:24:44.750Z,30.23
2022-08-21T22:27:20.179Z,30.56
2022-08-21T22:29:54.124Z,30.62
2022-08-21T22:32:28.876Z,30.73
2022-08-21T22:35:09.456Z,30.85
2022-08-21T22:37:43.167Z,30.35
2022-08-21T22:40:15.920Z,30.58
2022-08-21T22:42:59.272Z,30.77
2022-08-21T22:46:06.193Z,30.03
2022-08-21T22:48:55.877Z,30.79
2022-08-21T22:51:32.662Z,30.30
2022-08-21T22:54:16.491Z,30.24
2022-08-21T22:56:49.530Z,30.45
2022-08-21T22:59:26.925Z,30.27
2022-08-21T23:02:03.827Z,30.43
2022-08-21T23:04:34.727Z,30.59
2022-08-21T23:07:06.103Z,30.67
2022-08-21T23:09:39.940Z,31.01
2022-08-21T23:12:32.961Z,30.44
2022-08-21T23:15:09.514Z,30.81
2022-08-21T23:17:50.294Z,30.91
2022-08-21T23:20:25.649Z,30.77
2022-08-21T23:23:05.088Z,30.84
2022-08-21T23:25:56.559Z,30.65
2022-08-21T23:28:40.752Z,30.75
2022-08-21T23:31:25.175Z,30.75
2022-08-21T23:34:11.728Z,30.94
2022-08-21T23:37:25.139Z,30.98
2022-08-21T23:40:31.970Z,30.90
2022-08-21T23:43:13.059Z,30.89
2022-08-21T23:45:56.527Z,30.69
2022-08-21T23:48:39.281Z,31.18
2022-08-21T23:51:14.812Z,31.31
2022-08-21T23:53:58.712Z,31.24
2022-08-21T23:56:52.265Z,31.11
2022-08-21T23:59:35.589Z,31.04
